sensor_id;sensor_type;location;lat;lon;timestamp;temperature;humidity
40534;DHT22;26233;51.894;10.192;2023-04-29T00:01:39;15.40;46.70
40534;DHT22;26233;51.894;10.192;2023-04-29T00:04:06;15.40;46.90
40534;DHT22;26233;51.894;10.192;2023-04-29T00:06:35;15.50;46.90
40534;DHT22;26233;51.894;10.192;2023-04-29T00:09:02;15.40;46.90
40534;DHT22;26233;51.894;10.192;2023-04-29T00:11:29;15.40;46.90
40534;DHT22;26233;51.894;10.192;2023-04-29T00:13:56;15.40;46.90
40534;DHT22;26233;51.894;10.192;2023-04-29T00:16:23;15.40;47.00
40534;DHT22;26233;51.894;10.192;2023-04-29T00:18:50;15.50;47.10
40534;DHT22;26233;51.894;10.192;2023-04-29T00:21:17;15.40;47.00
40534;DHT22;26233;51.894;10.192;2023-04-29T00:23:50;15.50;47.10
40534;DHT22;26233;51.894;10.192;2023-04-29T00:26:17;15.50;47.10
40534;DHT22;26233;51.894;10.192;2023-04-29T00:28:44;15.50;47.20
40534;DHT22;26233;51.894;10.192;2023-04-29T00:31:11;15.50;47.20
40534;DHT22;26233;51.894;10.192;2023-04-29T00:33:38;15.50;47.20
40534;DHT22;26233;51.894;10.192;2023-04-29T00:36:06;15.50;47.20
40534;DHT22;26233;51.894;10.192;2023-04-29T00:38:34;15.50;47.20
40534;DHT22;26233;51.894;10.192;2023-04-29T00:41:03;15.60;47.40
40534;DHT22;26233;51.894;10.192;2023-04-29T00:43:30;15.60;47.40
40534;DHT22;26233;51.894;10.192;2023-04-29T00:45:57;15.60;47.40
40534;DHT22;26233;51.894;10.192;2023-04-29T00:48:24;15.60;47.30
40534;DHT22;26233;51.894;10.192;2023-04-29T00:50:51;15.60;47.40
40534;DHT22;26233;51.894;10.192;2023-04-29T00:53:18;15.60;48.00
40534;DHT22;26233;51.894;10.192;2023-04-29T00:55:47;15.60;47.50
40534;DHT22;26233;51.894;10.192;2023-04-29T00:58:18;15.60;47.50
40534;DHT22;26233;51.894;10.192;2023-04-29T01:00:45;15.60;47.50
40534;DHT22;26233;51.894;10.192;2023-04-29T01:03:15;15.60;47.50
40534;DHT22;26233;51.894;10.192;2023-04-29T01:05:44;15.50;47.30
40534;DHT22;26233;51.894;10.192;2023-04-29T01:08:22;15.50;47.40
40534;DHT22;26233;51.894;10.192;2023-04-29T01:11:03;15.50;47.50
40534;DHT22;26233;51.894;10.192;2023-04-29T01:13:41;15.50;47.50
40534;DHT22;26233;51.894;10.192;2023-04-29T01:16:11;15.50;47.50
40534;DHT22;26233;51.894;10.192;2023-04-29T01:18:47;15.50;47.40
40534;DHT22;26233;51.894;10.192;2023-04-29T01:21:16;15.40;47.30
40534;DHT22;26233;51.894;10.192;2023-04-29T01:23:45;15.40;47.30
40534;DHT22;26233;51.894;10.192;2023-04-29T01:26:12;15.40;47.30
40534;DHT22;26233;51.894;10.192;2023-04-29T01:28:47;15.40;47.40
40534;DHT22;26233;51.894;10.192;2023-04-29T01:31:21;15.30;47.50
40534;DHT22;26233;51.894;10.192;2023-04-29T01:34:02;15.40;47.40
40534;DHT22;26233;51.894;10.192;2023-04-29T01:36:40;15.30;47.50
40534;DHT22;26233;51.894;10.192;2023-04-29T01:39:20;15.30;48.00
40534;DHT22;26233;51.894;10.192;2023-04-29T01:41:56;15.30;47.40
40534;DHT22;26233;51.894;10.192;2023-04-29T01:44:29;15.30;47.50
40534;DHT22;26233;51.894;10.192;2023-04-29T01:46:58;15.30;47.50
40534;DHT22;26233;51.894;10.192;2023-04-29T01:49:27;15.30;47.50
40534;DHT22;26233;51.894;10.192;2023-04-29T01:51:54;15.40;48.10
40534;DHT22;26233;51.894;10.192;2023-04-29T01:54:23;15.30;47.50
40534;DHT22;26233;51.894;10.192;2023-04-29T01:56:50;15.30;47.50
40534;DHT22;26233;51.894;10.192;2023-04-29T01:59:17;15.30;47.50
40534;DHT22;26233;51.894;10.192;2023-04-29T02:01:45;15.40;47.50
40534;DHT22;26233;51.894;10.192;2023-04-29T02:04:12;15.40;47.60
40534;DHT22;26233;51.894;10.192;2023-04-29T02:06:39;15.30;47.50
40534;DHT22;26233;51.894;10.192;2023-04-29T02:09:06;15.30;47.50
40534;DHT22;26233;51.894;10.192;2023-04-29T02:11:35;15.30;47.50
40534;DHT22;26233;51.894;10.192;2023-04-29T02:14:02;15.30;47.50
40534;DHT22;26233;51.894;10.192;2023-04-29T02:16:29;15.30;47.50
40534;DHT22;26233;51.894;10.192;2023-04-29T02:18:56;15.30;47.60
40534;DHT22;26233;51.894;10.192;2023-04-29T02:21:23;15.30;47.60
40534;DHT22;26233;51.894;10.192;2023-04-29T02:23:51;15.30;47.60
40534;DHT22;26233;51.894;10.192;2023-04-29T02:26:19;15.30;47.60
40534;DHT22;26233;51.894;10.192;2023-04-29T02:28:48;15.30;47.50
40534;DHT22;26233;51.894;10.192;2023-04-29T02:31:17;15.30;47.50
40534;DHT22;26233;51.894;10.192;2023-04-29T02:33:44;15.20;47.40
40534;DHT22;26233;51.894;10.192;2023-04-29T02:36:11;15.20;47.40
40534;DHT22;26233;51.894;10.192;2023-04-29T02:38:39;15.20;47.40
40534;DHT22;26233;51.894;10.192;2023-04-29T02:41:06;15.20;47.40
40534;DHT22;26233;51.894;10.192;2023-04-29T02:43:33;15.10;47.30
40534;DHT22;26233;51.894;10.192;2023-04-29T02:46:02;15.10;47.30
40534;DHT22;26233;51.894;10.192;2023-04-29T02:48:29;15.10;47.50
40534;DHT22;26233;51.894;10.192;2023-04-29T02:50:57;15.00;47.40
40534;DHT22;26233;51.894;10.192;2023-04-29T02:53:24;15.00;47.50
40534;DHT22;26233;51.894;10.192;2023-04-29T02:55:51;15.00;47.60
40534;DHT22;26233;51.894;10.192;2023-04-29T02:58:18;15.00;47.60
40534;DHT22;26233;51.894;10.192;2023-04-29T03:00:45;15.00;47.70
40534;DHT22;26233;51.894;10.192;2023-04-29T03:03:13;15.00;47.70
40534;DHT22;26233;51.894;10.192;2023-04-29T03:05:40;14.90;47.70
40534;DHT22;26233;51.894;10.192;2023-04-29T03:08:07;15.00;47.80
40534;DHT22;26233;51.894;10.192;2023-04-29T03:10:35;14.90;47.50
40534;DHT22;26233;51.894;10.192;2023-04-29T03:13:02;14.90;48.00
40534;DHT22;26233;51.894;10.192;2023-04-29T03:15:29;14.90;47.50
40534;DHT22;26233;51.894;10.192;2023-04-29T03:17:56;14.90;47.50
40534;DHT22;26233;51.894;10.192;2023-04-29T03:20:27;14.80;47.50
40534;DHT22;26233;51.894;10.192;2023-04-29T03:22:54;14.80;47.50
40534;DHT22;26233;51.894;10.192;2023-04-29T03:25:21;14.80;47.60
40534;DHT22;26233;51.894;10.192;2023-04-29T03:27:49;14.80;47.50
40534;DHT22;26233;51.894;10.192;2023-04-29T03:30:16;14.80;47.50
40534;DHT22;26233;51.894;10.192;2023-04-29T03:32:43;14.80;47.40
40534;DHT22;26233;51.894;10.192;2023-04-29T03:35:10;14.80;47.50
40534;DHT22;26233;51.894;10.192;2023-04-29T03:37:39;14.80;47.50
40534;DHT22;26233;51.894;10.192;2023-04-29T03:40:09;14.70;47.50
40534;DHT22;26233;51.894;10.192;2023-04-29T03:42:37;14.70;47.60
40534;DHT22;26233;51.894;10.192;2023-04-29T03:45:05;14.80;47.70
40534;DHT22;26233;51.894;10.192;2023-04-29T03:47:33;14.70;47.60
40534;DHT22;26233;51.894;10.192;2023-04-29T03:50:00;14.70;47.60
40534;DHT22;26233;51.894;10.192;2023-04-29T03:52:28;14.70;47.60
40534;DHT22;26233;51.894;10.192;2023-04-29T03:54:56;14.70;47.60
40534;DHT22;26233;51.894;10.192;2023-04-29T03:57:23;14.60;47.50
40534;DHT22;26233;51.894;10.192;2023-04-29T03:59:50;14.60;47.60
40534;DHT22;26233;51.894;10.192;2023-04-29T04:02:17;14.60;47.60
40534;DHT22;26233;51.894;10.192;2023-04-29T04:04:45;14.60;47.60
40534;DHT22;26233;51.894;10.192;2023-04-29T04:07:12;14.50;47.50
40534;DHT22;26233;51.894;10.192;2023-04-29T04:09:39;14.50;47.40
40534;DHT22;26233;51.894;10.192;2023-04-29T04:12:07;14.50;47.40
40534;DHT22;26233;51.894;10.192;2023-04-29T04:14:34;14.40;47.40
40534;DHT22;26233;51.894;10.192;2023-04-29T04:17:01;14.40;47.40
40534;DHT22;26233;51.894;10.192;2023-04-29T04:19:29;14.30;47.40
40534;DHT22;26233;51.894;10.192;2023-04-29T04:21:57;14.30;47.40
40534;DHT22;26233;51.894;10.192;2023-04-29T04:24:24;14.20;47.40
40534;DHT22;26233;51.894;10.192;2023-04-29T04:26:51;14.20;47.50
40534;DHT22;26233;51.894;10.192;2023-04-29T04:29:19;14.20;47.50
40534;DHT22;26233;51.894;10.192;2023-04-29T04:31:46;14.10;47.50
40534;DHT22;26233;51.894;10.192;2023-04-29T04:34:13;14.10;47.50
40534;DHT22;26233;51.894;10.192;2023-04-29T04:36:40;14.00;47.60
40534;DHT22;26233;51.894;10.192;2023-04-29T04:39:07;14.00;47.70
40534;DHT22;26233;51.894;10.192;2023-04-29T04:41:34;14.00;47.80
40534;DHT22;26233;51.894;10.192;2023-04-29T04:44:01;13.90;47.80
40534;DHT22;26233;51.894;10.192;2023-04-29T04:46:30;13.90;47.90
40534;DHT22;26233;51.894;10.192;2023-04-29T04:48:57;13.90;47.80
40534;DHT22;26233;51.894;10.192;2023-04-29T04:51:24;13.90;47.90
40534;DHT22;26233;51.894;10.192;2023-04-29T04:53:53;13.80;47.90
40534;DHT22;26233;51.894;10.192;2023-04-29T04:56:20;13.80;47.90
40534;DHT22;26233;51.894;10.192;2023-04-29T04:58:47;13.80;48.00
40534;DHT22;26233;51.894;10.192;2023-04-29T05:01:14;13.70;48.10
40534;DHT22;26233;51.894;10.192;2023-04-29T05:03:43;13.70;48.20
40534;DHT22;26233;51.894;10.192;2023-04-29T05:06:10;13.70;48.20
40534;DHT22;26233;51.894;10.192;2023-04-29T05:08:37;13.70;48.30
40534;DHT22;26233;51.894;10.192;2023-04-29T05:11:04;13.70;48.20
40534;DHT22;26233;51.894;10.192;2023-04-29T05:13:32;13.70;48.20
40534;DHT22;26233;51.894;10.192;2023-04-29T05:16:01;13.70;48.10
40534;DHT22;26233;51.894;10.192;2023-04-29T05:18:29;13.70;48.20
40534;DHT22;26233;51.894;10.192;2023-04-29T05:20:58;13.60;48.10
40534;DHT22;26233;51.894;10.192;2023-04-29T05:23:25;13.60;48.00
40534;DHT22;26233;51.894;10.192;2023-04-29T05:25:52;13.60;48.00
40534;DHT22;26233;51.894;10.192;2023-04-29T05:28:19;13.50;47.90
40534;DHT22;26233;51.894;10.192;2023-04-29T05:30:49;13.50;48.00
40534;DHT22;26233;51.894;10.192;2023-04-29T05:33:17;13.50;48.20
40534;DHT22;26233;51.894;10.192;2023-04-29T05:35:45;13.50;48.30
40534;DHT22;26233;51.894;10.192;2023-04-29T05:38:13;13.50;48.30
40534;DHT22;26233;51.894;10.192;2023-04-29T05:40:41;13.60;48.60
40534;DHT22;26233;51.894;10.192;2023-04-29T05:43:08;13.50;48.50
40534;DHT22;26233;51.894;10.192;2023-04-29T05:45:37;13.60;48.70
40534;DHT22;26233;51.894;10.192;2023-04-29T05:48:05;13.60;48.60
40534;DHT22;26233;51.894;10.192;2023-04-29T05:50:33;13.60;48.40
40534;DHT22;26233;51.894;10.192;2023-04-29T05:53:01;13.60;48.50
40534;DHT22;26233;51.894;10.192;2023-04-29T05:55:30;13.60;48.40
40534;DHT22;26233;51.894;10.192;2023-04-29T05:57:57;13.60;48.40
40534;DHT22;26233;51.894;10.192;2023-04-29T06:00:24;13.60;48.30
40534;DHT22;26233;51.894;10.192;2023-04-29T06:02:52;13.60;48.30
40534;DHT22;26233;51.894;10.192;2023-04-29T06:05:19;13.60;48.30
40534;DHT22;26233;51.894;10.192;2023-04-29T06:07:46;13.60;48.30
40534;DHT22;26233;51.894;10.192;2023-04-29T06:10:14;13.60;48.20
40534;DHT22;26233;51.894;10.192;2023-04-29T06:12:42;13.60;48.20
40534;DHT22;26233;51.894;10.192;2023-04-29T06:15:11;13.60;48.30
40534;DHT22;26233;51.894;10.192;2023-04-29T06:17:38;13.60;48.20
40534;DHT22;26233;51.894;10.192;2023-04-29T06:20:06;13.50;48.20
40534;DHT22;26233;51.894;10.192;2023-04-29T06:22:34;13.50;48.30
40534;DHT22;26233;51.894;10.192;2023-04-29T06:25:02;13.60;48.30
40534;DHT22;26233;51.894;10.192;2023-04-29T06:27:29;13.50;48.20
40534;DHT22;26233;51.894;10.192;2023-04-29T06:29:57;13.50;48.30
40534;DHT22;26233;51.894;10.192;2023-04-29T06:32:25;13.60;48.40
40534;DHT22;26233;51.894;10.192;2023-04-29T06:34:52;13.60;48.40
40534;DHT22;26233;51.894;10.192;2023-04-29T06:37:19;13.60;48.50
40534;DHT22;26233;51.894;10.192;2023-04-29T06:39:46;13.60;48.50
40534;DHT22;26233;51.894;10.192;2023-04-29T06:42:13;13.60;48.40
40534;DHT22;26233;51.894;10.192;2023-04-29T06:44:41;13.60;48.40
40534;DHT22;26233;51.894;10.192;2023-04-29T06:47:09;13.70;48.50
40534;DHT22;26233;51.894;10.192;2023-04-29T06:49:37;13.70;48.40
40534;DHT22;26233;51.894;10.192;2023-04-29T06:52:04;13.70;48.40
40534;DHT22;26233;51.894;10.192;2023-04-29T06:54:31;13.70;48.40
40534;DHT22;26233;51.894;10.192;2023-04-29T06:56:58;13.70;48.40
40534;DHT22;26233;51.894;10.192;2023-04-29T06:59:26;13.70;48.40
40534;DHT22;26233;51.894;10.192;2023-04-29T07:01:54;13.70;48.40
40534;DHT22;26233;51.894;10.192;2023-04-29T07:04:22;13.70;48.40
40534;DHT22;26233;51.894;10.192;2023-04-29T07:06:49;13.70;48.40
40534;DHT22;26233;51.894;10.192;2023-04-29T07:09:18;13.70;48.20
40534;DHT22;26233;51.894;10.192;2023-04-29T07:11:45;13.60;48.10
40534;DHT22;26233;51.894;10.192;2023-04-29T07:14:12;13.60;48.20
40534;DHT22;26233;51.894;10.192;2023-04-29T07:16:39;13.50;48.00
40534;DHT22;26233;51.894;10.192;2023-04-29T07:19:06;13.50;48.20
40534;DHT22;26233;51.894;10.192;2023-04-29T07:21:35;13.50;48.40
40534;DHT22;26233;51.894;10.192;2023-04-29T07:24:03;13.50;48.50
40534;DHT22;26233;51.894;10.192;2023-04-29T07:26:31;13.50;48.40
40534;DHT22;26233;51.894;10.192;2023-04-29T07:28:58;13.50;48.40
40534;DHT22;26233;51.894;10.192;2023-04-29T07:31:25;13.50;48.40
40534;DHT22;26233;51.894;10.192;2023-04-29T07:33:53;13.50;48.40
40534;DHT22;26233;51.894;10.192;2023-04-29T07:36:20;13.50;48.50
40534;DHT22;26233;51.894;10.192;2023-04-29T07:38:48;13.40;48.30
40534;DHT22;26233;51.894;10.192;2023-04-29T07:41:16;13.40;48.50
40534;DHT22;26233;51.894;10.192;2023-04-29T07:43:43;13.40;48.50
40534;DHT22;26233;51.894;10.192;2023-04-29T07:46:10;13.40;48.60
40534;DHT22;26233;51.894;10.192;2023-04-29T07:48:37;13.40;48.50
40534;DHT22;26233;51.894;10.192;2023-04-29T07:51:05;13.40;48.50
40534;DHT22;26233;51.894;10.192;2023-04-29T07:53:33;13.30;48.30
40534;DHT22;26233;51.894;10.192;2023-04-29T07:56:05;13.30;48.30
40534;DHT22;26233;51.894;10.192;2023-04-29T07:58:33;13.30;48.40
40534;DHT22;26233;51.894;10.192;2023-04-29T08:01:04;13.30;48.30
40534;DHT22;26233;51.894;10.192;2023-04-29T08:03:33;13.20;48.20
40534;DHT22;26233;51.894;10.192;2023-04-29T08:06:00;13.20;48.30
40534;DHT22;26233;51.894;10.192;2023-04-29T08:08:28;13.20;48.40
40534;DHT22;26233;51.894;10.192;2023-04-29T08:10:57;13.20;48.40
40534;DHT22;26233;51.894;10.192;2023-04-29T08:13:26;13.10;48.50
40534;DHT22;26233;51.894;10.192;2023-04-29T08:15:53;13.10;48.50
40534;DHT22;26233;51.894;10.192;2023-04-29T08:18:20;13.10;48.50
40534;DHT22;26233;51.894;10.192;2023-04-29T08:20:47;13.10;48.50
40534;DHT22;26233;51.894;10.192;2023-04-29T08:23:16;13.10;48.50
40534;DHT22;26233;51.894;10.192;2023-04-29T08:25:43;13.10;48.50
40534;DHT22;26233;51.894;10.192;2023-04-29T08:28:11;13.10;48.60
40534;DHT22;26233;51.894;10.192;2023-04-29T08:30:40;13.10;48.60
40534;DHT22;26233;51.894;10.192;2023-04-29T08:33:07;13.10;48.60
40534;DHT22;26233;51.894;10.192;2023-04-29T08:35:35;13.10;48.60
40534;DHT22;26233;51.894;10.192;2023-04-29T08:38:03;13.10;48.70
40534;DHT22;26233;51.894;10.192;2023-04-29T08:40:33;13.20;48.80
40534;DHT22;26233;51.894;10.192;2023-04-29T08:43:02;13.20;48.90
40534;DHT22;26233;51.894;10.192;2023-04-29T08:45:30;13.20;48.90
40534;DHT22;26233;51.894;10.192;2023-04-29T08:48:01;13.30;49.00
40534;DHT22;26233;51.894;10.192;2023-04-29T08:50:29;13.30;49.00
40534;DHT22;26233;51.894;10.192;2023-04-29T08:52:57;13.30;48.90
40534;DHT22;26233;51.894;10.192;2023-04-29T08:55:24;13.40;48.90
40534;DHT22;26233;51.894;10.192;2023-04-29T08:57:53;13.40;48.70
40534;DHT22;26233;51.894;10.192;2023-04-29T09:00:23;13.40;48.70
40534;DHT22;26233;51.894;10.192;2023-04-29T09:02:52;13.40;48.70
40534;DHT22;26233;51.894;10.192;2023-04-29T09:05:24;13.40;49.00
40534;DHT22;26233;51.894;10.192;2023-04-29T09:07:51;13.40;48.90
40534;DHT22;26233;51.894;10.192;2023-04-29T09:10:18;13.40;48.80
40534;DHT22;26233;51.894;10.192;2023-04-29T09:12:46;13.50;48.80
40534;DHT22;26233;51.894;10.192;2023-04-29T09:15:13;13.40;48.60
40534;DHT22;26233;51.894;10.192;2023-04-29T09:17:41;13.50;48.70
40534;DHT22;26233;51.894;10.192;2023-04-29T09:20:26;13.50;48.60
40534;DHT22;26233;51.894;10.192;2023-04-29T09:22:58;13.50;48.70
40534;DHT22;26233;51.894;10.192;2023-04-29T09:25:27;13.50;48.70
40534;DHT22;26233;51.894;10.192;2023-04-29T09:27:55;13.50;48.80
40534;DHT22;26233;51.894;10.192;2023-04-29T09:30:23;13.60;48.90
40534;DHT22;26233;51.894;10.192;2023-04-29T09:33:07;13.60;48.90
40534;DHT22;26233;51.894;10.192;2023-04-29T09:35:39;13.70;48.90
40534;DHT22;26233;51.894;10.192;2023-04-29T09:38:11;13.70;48.80
40534;DHT22;26233;51.894;10.192;2023-04-29T09:40:40;13.80;48.80
40534;DHT22;26233;51.894;10.192;2023-04-29T09:43:12;13.80;48.90
40534;DHT22;26233;51.894;10.192;2023-04-29T09:45:41;13.90;48.90
40534;DHT22;26233;51.894;10.192;2023-04-29T09:48:10;14.00;48.90
40534;DHT22;26233;51.894;10.192;2023-04-29T09:50:41;14.00;49.40
40534;DHT22;26233;51.894;10.192;2023-04-29T09:53:12;14.10;48.80
40534;DHT22;26233;51.894;10.192;2023-04-29T09:55:58;14.20;48.70
40534;DHT22;26233;51.894;10.192;2023-04-29T09:58:30;14.20;48.70
40534;DHT22;26233;51.894;10.192;2023-04-29T10:01:02;14.20;48.70
40534;DHT22;26233;51.894;10.192;2023-04-29T10:03:32;14.30;48.90
40534;DHT22;26233;51.894;10.192;2023-04-29T10:06:03;14.30;49.00
40534;DHT22;26233;51.894;10.192;2023-04-29T10:08:32;14.40;49.00
40534;DHT22;26233;51.894;10.192;2023-04-29T10:11:01;14.50;48.90
40534;DHT22;26233;51.894;10.192;2023-04-29T10:13:30;14.60;48.80
40534;DHT22;26233;51.894;10.192;2023-04-29T10:16:10;14.70;48.70
40534;DHT22;26233;51.894;10.192;2023-04-29T10:18:48;14.80;48.50
40534;DHT22;26233;51.894;10.192;2023-04-29T10:21:26;14.80;48.50
40534;DHT22;26233;51.894;10.192;2023-04-29T10:23:57;14.90;48.60
40534;DHT22;26233;51.894;10.192;2023-04-29T10:26:26;15.00;48.70
40534;DHT22;26233;51.894;10.192;2023-04-29T10:28:55;15.00;48.60
40534;DHT22;26233;51.894;10.192;2023-04-29T10:31:25;15.10;48.50
40534;DHT22;26233;51.894;10.192;2023-04-29T10:33:55;15.20;48.30
40534;DHT22;26233;51.894;10.192;2023-04-29T10:36:24;15.20;48.00
40534;DHT22;26233;51.894;10.192;2023-04-29T10:38:57;15.30;47.90
40534;DHT22;26233;51.894;10.192;2023-04-29T10:41:27;15.30;47.70
40534;DHT22;26233;51.894;10.192;2023-04-29T10:43:58;15.30;47.70
40534;DHT22;26233;51.894;10.192;2023-04-29T10:46:26;15.30;47.80
40534;DHT22;26233;51.894;10.192;2023-04-29T10:48:56;15.40;48.00
40534;DHT22;26233;51.894;10.192;2023-04-29T10:51:30;15.40;48.10
40534;DHT22;26233;51.894;10.192;2023-04-29T10:54:03;15.50;48.20
40534;DHT22;26233;51.894;10.192;2023-04-29T10:56:38;15.60;48.20
40534;DHT22;26233;51.894;10.192;2023-04-29T10:59:12;15.80;48.30
40534;DHT22;26233;51.894;10.192;2023-04-29T11:01:48;15.70;48.10
40534;DHT22;26233;51.894;10.192;2023-04-29T11:04:17;15.90;48.00
40534;DHT22;26233;51.894;10.192;2023-04-29T11:06:50;16.20;48.30
40534;DHT22;26233;51.894;10.192;2023-04-29T11:09:19;16.20;48.00
40534;DHT22;26233;51.894;10.192;2023-04-29T11:11:58;16.30;47.70
40534;DHT22;26233;51.894;10.192;2023-04-29T11:14:30;16.40;47.20
40534;DHT22;26233;51.894;10.192;2023-04-29T11:17:00;16.40;47.20
40534;DHT22;26233;51.894;10.192;2023-04-29T11:19:32;16.40;47.00
40534;DHT22;26233;51.894;10.192;2023-04-29T11:22:10;16.50;46.90
40534;DHT22;26233;51.894;10.192;2023-04-29T11:24:53;16.40;46.80
40534;DHT22;26233;51.894;10.192;2023-04-29T11:27:23;16.50;46.90
40534;DHT22;26233;51.894;10.192;2023-04-29T11:29:54;16.50;47.20
40534;DHT22;26233;51.894;10.192;2023-04-29T11:32:23;16.60;47.10
40534;DHT22;26233;51.894;10.192;2023-04-29T11:34:51;16.60;46.90
40534;DHT22;26233;51.894;10.192;2023-04-29T11:37:21;16.60;46.60
40534;DHT22;26233;51.894;10.192;2023-04-29T11:39:50;16.60;46.10
40534;DHT22;26233;51.894;10.192;2023-04-29T11:42:21;16.50;46.10
40534;DHT22;26233;51.894;10.192;2023-04-29T11:44:50;16.50;45.80
40534;DHT22;26233;51.894;10.192;2023-04-29T11:47:18;16.40;45.70
40534;DHT22;26233;51.894;10.192;2023-04-29T11:49:46;16.30;45.70
40534;DHT22;26233;51.894;10.192;2023-04-29T11:52:14;16.30;45.90
40534;DHT22;26233;51.894;10.192;2023-04-29T11:54:43;16.20;45.70
40534;DHT22;26233;51.894;10.192;2023-04-29T11:57:11;16.20;45.80
40534;DHT22;26233;51.894;10.192;2023-04-29T11:59:38;16.20;45.80
40534;DHT22;26233;51.894;10.192;2023-04-29T12:02:10;16.10;45.50
40534;DHT22;26233;51.894;10.192;2023-04-29T12:04:44;16.00;45.40
40534;DHT22;26233;51.894;10.192;2023-04-29T12:07:13;16.00;45.40
40534;DHT22;26233;51.894;10.192;2023-04-29T12:09:43;15.90;45.50
40534;DHT22;26233;51.894;10.192;2023-04-29T12:12:12;15.90;45.60
40534;DHT22;26233;51.894;10.192;2023-04-29T12:14:40;15.80;45.60
40534;DHT22;26233;51.894;10.192;2023-04-29T12:17:08;15.80;45.70
40534;DHT22;26233;51.894;10.192;2023-04-29T12:19:36;15.80;45.70
40534;DHT22;26233;51.894;10.192;2023-04-29T12:22:06;15.80;45.70
40534;DHT22;26233;51.894;10.192;2023-04-29T12:24:35;15.80;45.70
40534;DHT22;26233;51.894;10.192;2023-04-29T12:27:06;15.90;45.70
40534;DHT22;26233;51.894;10.192;2023-04-29T12:29:35;15.70;45.70
40534;DHT22;26233;51.894;10.192;2023-04-29T12:32:03;15.80;45.90
40534;DHT22;26233;51.894;10.192;2023-04-29T12:34:31;15.80;45.90
40534;DHT22;26233;51.894;10.192;2023-04-29T12:36:59;15.80;45.90
40534;DHT22;26233;51.894;10.192;2023-04-29T12:39:26;15.80;45.90
40534;DHT22;26233;51.894;10.192;2023-04-29T12:41:54;15.80;46.00
40534;DHT22;26233;51.894;10.192;2023-04-29T12:44:25;15.90;46.20
40534;DHT22;26233;51.894;10.192;2023-04-29T12:46:52;15.90;46.70
40534;DHT22;26233;51.894;10.192;2023-04-29T12:49:22;16.00;46.10
40534;DHT22;26233;51.894;10.192;2023-04-29T12:51:50;16.10;46.20
40534;DHT22;26233;51.894;10.192;2023-04-29T12:54:17;16.20;46.30
40534;DHT22;26233;51.894;10.192;2023-04-29T12:56:44;16.30;46.30
40534;DHT22;26233;51.894;10.192;2023-04-29T12:59:12;16.40;46.20
40534;DHT22;26233;51.894;10.192;2023-04-29T13:01:40;16.50;46.20
40534;DHT22;26233;51.894;10.192;2023-04-29T13:04:08;16.60;46.00
40534;DHT22;26233;51.894;10.192;2023-04-29T13:06:37;16.60;45.70
40534;DHT22;26233;51.894;10.192;2023-04-29T13:09:06;16.70;45.60
40534;DHT22;26233;51.894;10.192;2023-04-29T13:11:39;16.70;45.10
40534;DHT22;26233;51.894;10.192;2023-04-29T13:14:06;16.60;45.00
40534;DHT22;26233;51.894;10.192;2023-04-29T13:16:34;16.60;44.80
40534;DHT22;26233;51.894;10.192;2023-04-29T13:19:02;16.50;44.60
40534;DHT22;26233;51.894;10.192;2023-04-29T13:21:29;16.50;44.40
40534;DHT22;26233;51.894;10.192;2023-04-29T13:23:57;16.40;44.30
40534;DHT22;26233;51.894;10.192;2023-04-29T13:26:24;16.30;44.30
40534;DHT22;26233;51.894;10.192;2023-04-29T13:28:53;16.20;44.30
40534;DHT22;26233;51.894;10.192;2023-04-29T13:31:20;16.20;44.40
40534;DHT22;26233;51.894;10.192;2023-04-29T13:33:47;16.20;44.50
40534;DHT22;26233;51.894;10.192;2023-04-29T13:36:16;16.20;44.50
40534;DHT22;26233;51.894;10.192;2023-04-29T13:38:43;16.10;44.40
40534;DHT22;26233;51.894;10.192;2023-04-29T13:41:10;16.10;44.50
40534;DHT22;26233;51.894;10.192;2023-04-29T13:43:37;16.20;44.70
40534;DHT22;26233;51.894;10.192;2023-04-29T13:46:05;16.20;44.70
40534;DHT22;26233;51.894;10.192;2023-04-29T13:48:32;16.20;44.70
40534;DHT22;26233;51.894;10.192;2023-04-29T13:50:59;16.30;44.80
40534;DHT22;26233;51.894;10.192;2023-04-29T13:53:28;16.30;44.90
40534;DHT22;26233;51.894;10.192;2023-04-29T13:55:55;16.40;45.00
40534;DHT22;26233;51.894;10.192;2023-04-29T13:58:22;16.50;45.00
40534;DHT22;26233;51.894;10.192;2023-04-29T14:00:49;16.50;44.60
40534;DHT22;26233;51.894;10.192;2023-04-29T14:03:16;16.50;44.40
40534;DHT22;26233;51.894;10.192;2023-04-29T14:05:43;16.60;44.10
40534;DHT22;26233;51.894;10.192;2023-04-29T14:08:10;16.60;44.10
40534;DHT22;26233;51.894;10.192;2023-04-29T14:10:39;16.60;44.10
40534;DHT22;26233;51.894;10.192;2023-04-29T14:13:07;16.60;44.00
40534;DHT22;26233;51.894;10.192;2023-04-29T14:15:34;16.70;44.10
40534;DHT22;26233;51.894;10.192;2023-04-29T14:18:01;16.70;44.10
40534;DHT22;26233;51.894;10.192;2023-04-29T14:20:28;16.70;44.10
40534;DHT22;26233;51.894;10.192;2023-04-29T14:22:55;16.70;44.00
40534;DHT22;26233;51.894;10.192;2023-04-29T14:25:22;16.80;44.00
40534;DHT22;26233;51.894;10.192;2023-04-29T14:27:50;16.80;44.00
40534;DHT22;26233;51.894;10.192;2023-04-29T14:30:17;16.80;43.80
40534;DHT22;26233;51.894;10.192;2023-04-29T14:32:44;16.80;43.70
40534;DHT22;26233;51.894;10.192;2023-04-29T14:35:11;16.80;43.60
40534;DHT22;26233;51.894;10.192;2023-04-29T14:37:39;16.80;43.50
40534;DHT22;26233;51.894;10.192;2023-04-29T14:40:07;16.80;43.50
40534;DHT22;26233;51.894;10.192;2023-04-29T14:42:35;16.70;43.40
40534;DHT22;26233;51.894;10.192;2023-04-29T14:45:04;16.80;43.50
40534;DHT22;26233;51.894;10.192;2023-04-29T14:47:32;16.70;43.40
40534;DHT22;26233;51.894;10.192;2023-04-29T14:49:59;16.70;43.50
40534;DHT22;26233;51.894;10.192;2023-04-29T14:52:26;16.60;43.30
40534;DHT22;26233;51.894;10.192;2023-04-29T14:54:53;16.60;43.30
40534;DHT22;26233;51.894;10.192;2023-04-29T14:57:20;16.50;43.20
40534;DHT22;26233;51.894;10.192;2023-04-29T14:59:50;16.50;43.30
40534;DHT22;26233;51.894;10.192;2023-04-29T15:02:19;16.50;43.30
40534;DHT22;26233;51.894;10.192;2023-04-29T15:04:46;16.40;43.20
40534;DHT22;26233;51.894;10.192;2023-04-29T15:07:14;16.40;43.90
40534;DHT22;26233;51.894;10.192;2023-04-29T15:09:41;16.40;43.30
40534;DHT22;26233;51.894;10.192;2023-04-29T15:12:08;16.30;43.20
40534;DHT22;26233;51.894;10.192;2023-04-29T15:14:35;16.30;43.20
40534;DHT22;26233;51.894;10.192;2023-04-29T15:17:02;16.30;43.20
40534;DHT22;26233;51.894;10.192;2023-04-29T15:19:31;16.20;43.20
40534;DHT22;26233;51.894;10.192;2023-04-29T15:21:58;16.20;43.10
40534;DHT22;26233;51.894;10.192;2023-04-29T15:24:25;16.20;43.00